sensor_id;sensor_type;location;lat;lon;timestamp;P1;durP1;ratioP1;P2;durP2;ratioP2
53521;SDS011;39398;48.382;9.802;2023-03-17T00:03:39;19.48;;;9.68;;
53521;SDS011;39398;48.382;9.802;2023-03-17T00:08:42;21.88;;;9.98;;
53521;SDS011;39398;48.382;9.802;2023-03-17T00:13:44;17.58;;;10.57;;
53521;SDS011;39398;48.382;9.802;2023-03-17T00:18:47;19.77;;;10.38;;
53521;SDS011;39398;48.382;9.802;2023-03-17T00:23:50;18.35;;;10.43;;
53521;SDS011;39398;48.382;9.802;2023-03-17T00:28:52;20.35;;;10.57;;
53521;SDS011;39398;48.382;9.802;2023-03-17T00:33:55;15.48;;;9.93;;
53521;SDS011;39398;48.382;9.802;2023-03-17T00:38:57;17.23;;;9.48;;
53521;SDS011;39398;48.382;9.802;2023-03-17T00:43:59;16.05;;;10.57;;
53521;SDS011;39398;48.382;9.802;2023-03-17T00:49:03;15.45;;;9.75;;
53521;SDS011;39398;48.382;9.802;2023-03-17T00:54:14;14.73;;;9.77;;
53521;SDS011;39398;48.382;9.802;2023-03-17T00:59:17;18.27;;;10.77;;
53521;SDS011;39398;48.382;9.802;2023-03-17T01:04:25;15.45;;;10.40;;
53521;SDS011;39398;48.382;9.802;2023-03-17T01:09:27;17.75;;;10.88;;
53521;SDS011;39398;48.382;9.802;2023-03-17T01:14:29;18.35;;;9.90;;
53521;SDS011;39398;48.382;9.802;2023-03-17T01:19:32;17.58;;;10.60;;
53521;SDS011;39398;48.382;9.802;2023-03-17T01:24:33;15.98;;;10.23;;
53521;SDS011;39398;48.382;9.802;2023-03-17T01:29:35;19.98;;;10.93;;
53521;SDS011;39398;48.382;9.802;2023-03-17T01:34:38;19.90;;;10.95;;
53521;SDS011;39398;48.382;9.802;2023-03-17T01:39:39;16.80;;;10.25;;
53521;SDS011;39398;48.382;9.802;2023-03-17T01:44:55;18.60;;;10.90;;
53521;SDS011;39398;48.382;9.802;2023-03-17T01:49:59;15.80;;;9.82;;
53521;SDS011;39398;48.382;9.802;2023-03-17T01:55:07;20.30;;;10.07;;
53521;SDS011;39398;48.382;9.802;2023-03-17T02:00:13;16.95;;;9.13;;
53521;SDS011;39398;48.382;9.802;2023-03-17T02:05:19;21.77;;;10.98;;
53521;SDS011;39398;48.382;9.802;2023-03-17T02:10:22;18.88;;;10.35;;
53521;SDS011;39398;48.382;9.802;2023-03-17T02:15:34;19.73;;;11.60;;
53521;SDS011;39398;48.382;9.802;2023-03-17T02:26:24;17.40;;;10.30;;
53521;SDS011;39398;48.382;9.802;2023-03-17T02:31:28;19.13;;;9.68;;
53521;SDS011;39398;48.382;9.802;2023-03-17T02:36:30;19.90;;;11.05;;
53521;SDS011;39398;48.382;9.802;2023-03-17T02:41:33;20.67;;;11.10;;
53521;SDS011;39398;48.382;9.802;2023-03-17T02:46:35;20.75;;;10.90;;
53521;SDS011;39398;48.382;9.802;2023-03-17T02:51:37;20.48;;;11.98;;
53521;SDS011;39398;48.382;9.802;2023-03-17T02:56:40;20.70;;;10.20;;
53521;SDS011;39398;48.382;9.802;2023-03-17T03:01:41;14.98;;;8.95;;
53521;SDS011;39398;48.382;9.802;2023-03-17T03:06:43;16.67;;;10.25;;
53521;SDS011;39398;48.382;9.802;2023-03-17T03:11:46;20.92;;;11.88;;
53521;SDS011;39398;48.382;9.802;2023-03-17T03:16:48;17.60;;;10.48;;
53521;SDS011;39398;48.382;9.802;2023-03-17T03:21:50;21.90;;;11.27;;
53521;SDS011;39398;48.382;9.802;2023-03-17T03:26:53;21.48;;;11.07;;
53521;SDS011;39398;48.382;9.802;2023-03-17T03:31:54;19.85;;;10.82;;
53521;SDS011;39398;48.382;9.802;2023-03-17T03:36:56;21.65;;;11.75;;
53521;SDS011;39398;48.382;9.802;2023-03-17T03:41:59;20.65;;;12.02;;
53521;SDS011;39398;48.382;9.802;2023-03-17T03:47:00;20.00;;;12.98;;
53521;SDS011;39398;48.382;9.802;2023-03-17T03:52:02;20.25;;;12.38;;
53521;SDS011;39398;48.382;9.802;2023-03-17T03:57:05;19.45;;;12.18;;
53521;SDS011;39398;48.382;9.802;2023-03-17T04:02:07;20.13;;;12.52;;
53521;SDS011;39398;48.382;9.802;2023-03-17T04:07:10;19.35;;;12.63;;
53521;SDS011;39398;48.382;9.802;2023-03-17T04:12:13;20.90;;;14.30;;
53521;SDS011;39398;48.382;9.802;2023-03-17T04:17:14;23.40;;;14.55;;
53521;SDS011;39398;48.382;9.802;2023-03-17T04:22:16;22.40;;;14.73;;
53521;SDS011;39398;48.382;9.802;2023-03-17T04:27:19;21.20;;;14.80;;
53521;SDS011;39398;48.382;9.802;2023-03-17T04:32:20;23.23;;;14.93;;
53521;SDS011;39398;48.382;9.802;2023-03-17T04:37:22;21.80;;;14.52;;
53521;SDS011;39398;48.382;9.802;2023-03-17T04:42:25;21.05;;;15.52;;
53521;SDS011;39398;48.382;9.802;2023-03-17T04:47:27;21.55;;;14.82;;
53521;SDS011;39398;48.382;9.802;2023-03-17T04:52:28;23.58;;;16.17;;
53521;SDS011;39398;48.382;9.802;2023-03-17T04:57:31;22.27;;;15.40;;
53521;SDS011;39398;48.382;9.802;2023-03-17T05:02:33;19.15;;;14.90;;
53521;SDS011;39398;48.382;9.802;2023-03-17T05:07:35;19.13;;;15.10;;
53521;SDS011;39398;48.382;9.802;2023-03-17T05:12:38;21.13;;;15.38;;
53521;SDS011;39398;48.382;9.802;2023-03-17T05:17:39;21.13;;;15.07;;
53521;SDS011;39398;48.382;9.802;2023-03-17T05:22:41;22.58;;;15.90;;
53521;SDS011;39398;48.382;9.802;2023-03-17T05:27:44;22.15;;;15.40;;
53521;SDS011;39398;48.382;9.802;2023-03-17T05:32:45;24.20;;;15.27;;
53521;SDS011;39398;48.382;9.802;2023-03-17T05:37:47;23.02;;;16.23;;
53521;SDS011;39398;48.382;9.802;2023-03-17T05:42:50;27.55;;;16.88;;
53521;SDS011;39398;48.382;9.802;2023-03-17T05:47:52;23.60;;;16.67;;
53521;SDS011;39398;48.382;9.802;2023-03-17T05:52:53;20.40;;;15.98;;
53521;SDS011;39398;48.382;9.802;2023-03-17T05:57:56;26.10;;;16.95;;
53521;SDS011;39398;48.382;9.802;2023-03-17T06:02:58;31.17;;;20.05;;
53521;SDS011;39398;48.382;9.802;2023-03-17T06:08:00;34.55;;;21.45;;
53521;SDS011;39398;48.382;9.802;2023-03-17T06:13:03;27.75;;;18.40;;
53521;SDS011;39398;48.382;9.802;2023-03-17T06:18:04;34.15;;;17.23;;
53521;SDS011;39398;48.382;9.802;2023-03-17T06:23:06;24.00;;;17.05;;
53521;SDS011;39398;48.382;9.802;2023-03-17T06:28:09;22.10;;;15.02;;
53521;SDS011;39398;48.382;9.802;2023-03-17T06:33:10;21.15;;;13.50;;
53521;SDS011;39398;48.382;9.802;2023-03-17T06:38:12;17.75;;;11.93;;
53521;SDS011;39398;48.382;9.802;2023-03-17T06:43:16;17.10;;;11.98;;
53521;SDS011;39398;48.382;9.802;2023-03-17T06:48:17;21.70;;;13.18;;
53521;SDS011;39398;48.382;9.802;2023-03-17T06:53:19;17.60;;;11.10;;
53521;SDS011;39398;48.382;9.802;2023-03-17T06:58:22;14.40;;;9.63;;
53521;SDS011;39398;48.382;9.802;2023-03-17T07:03:24;15.50;;;10.18;;
53521;SDS011;39398;48.382;9.802;2023-03-17T07:08:27;13.82;;;9.30;;
53521;SDS011;39398;48.382;9.802;2023-03-17T07:13:29;14.63;;;9.43;;
53521;SDS011;39398;48.382;9.802;2023-03-17T07:18:31;14.88;;;9.65;;
53521;SDS011;39398;48.382;9.802;2023-03-17T07:23:33;21.98;;;12.95;;
53521;SDS011;39398;48.382;9.802;2023-03-17T07:28:35;18.35;;;11.88;;
53521;SDS011;39398;48.382;9.802;2023-03-17T07:33:37;18.25;;;10.27;;
53521;SDS011;39398;48.382;9.802;2023-03-17T07:38:39;15.52;;;10.40;;
53521;SDS011;39398;48.382;9.802;2023-03-17T07:43:42;16.50;;;10.13;;
53521;SDS011;39398;48.382;9.802;2023-03-17T07:48:43;14.80;;;9.63;;
53521;SDS011;39398;48.382;9.802;2023-03-17T07:53:45;15.38;;;10.40;;
53521;SDS011;39398;48.382;9.802;2023-03-17T07:58:48;15.50;;;10.63;;
53521;SDS011;39398;48.382;9.802;2023-03-17T08:03:49;13.70;;;9.82;;
53521;SDS011;39398;48.382;9.802;2023-03-17T08:08:51;36.20;;;22.95;;
53521;SDS011;39398;48.382;9.802;2023-03-17T08:13:54;15.00;;;10.00;;
53521;SDS011;39398;48.382;9.802;2023-03-17T08:18:56;15.45;;;9.65;;
53521;SDS011;39398;48.382;9.802;2023-03-17T08:23:58;14.93;;;9.98;;
53521;SDS011;39398;48.382;9.802;2023-03-17T08:29:01;14.25;;;9.70;;
53521;SDS011;39398;48.382;9.802;2023-03-17T08:34:03;14.68;;;9.32;;
53521;SDS011;39398;48.382;9.802;2023-03-17T08:39:04;14.93;;;9.80;;
53521;SDS011;39398;48.382;9.802;2023-03-17T08:44:07;13.77;;;9.10;;
53521;SDS011;39398;48.382;9.802;2023-03-17T08:49:09;15.93;;;9.10;;
53521;SDS011;39398;48.382;9.802;2023-03-17T08:54:11;15.77;;;9.55;;
53521;SDS011;39398;48.382;9.802;2023-03-17T08:59:14;14.55;;;9.82;;
53521;SDS011;39398;48.382;9.802;2023-03-17T09:04:17;19.30;;;10.55;;
53521;SDS011;39398;48.382;9.802;2023-03-17T09:09:18;16.67;;;10.02;;
53521;SDS011;39398;48.382;9.802;2023-03-17T09:14:21;14.65;;;9.70;;
53521;SDS011;39398;48.382;9.802;2023-03-17T09:19:23;14.07;;;9.48;;
53521;SDS011;39398;48.382;9.802;2023-03-17T09:24:25;15.90;;;9.95;;
53521;SDS011;39398;48.382;9.802;2023-03-17T09:29:27;13.57;;;9.70;;
53521;SDS011;39398;48.382;9.802;2023-03-17T09:34:29;15.70;;;9.82;;
53521;SDS011;39398;48.382;9.802;2023-03-17T09:39:31;13.85;;;9.60;;
53521;SDS011;39398;48.382;9.802;2023-03-17T09:44:37;15.05;;;9.75;;
53521;SDS011;39398;48.382;9.802;2023-03-17T09:49:46;13.32;;;9.88;;
53521;SDS011;39398;48.382;9.802;2023-03-17T09:54:49;13.73;;;9.93;;
53521;SDS011;39398;48.382;9.802;2023-03-17T09:59:53;16.25;;;10.07;;
53521;SDS011;39398;48.382;9.802;2023-03-17T10:05:00;13.45;;;9.52;;
53521;SDS011;39398;48.382;9.802;2023-03-17T10:10:12;22.17;;;13.20;;
53521;SDS011;39398;48.382;9.802;2023-03-17T10:15:19;15.55;;;9.55;;
53521;SDS011;39398;48.382;9.802;2023-03-17T10:20:26;14.07;;;9.30;;
53521;SDS011;39398;48.382;9.802;2023-03-17T10:25:29;15.95;;;9.77;;
53521;SDS011;39398;48.382;9.802;2023-03-17T10:30:34;15.68;;;10.20;;
53521;SDS011;39398;48.382;9.802;2023-03-17T10:35:36;15.00;;;10.73;;
53521;SDS011;39398;48.382;9.802;2023-03-17T10:40:38;16.45;;;11.20;;
53521;SDS011;39398;48.382;9.802;2023-03-17T10:45:45;14.90;;;10.50;;
53521;SDS011;39398;48.382;9.802;2023-03-17T10:50:55;15.98;;;10.45;;
53521;SDS011;39398;48.382;9.802;2023-03-17T10:55:58;14.80;;;9.90;;
53521;SDS011;39398;48.382;9.802;2023-03-17T11:01:14;13.70;;;9.80;;
53521;SDS011;39398;48.382;9.802;2023-03-17T11:06:18;13.52;;;9.32;;
53521;SDS011;39398;48.382;9.802;2023-03-17T11:11:27;12.70;;;8.98;;
53521;SDS011;39398;48.382;9.802;2023-03-17T11:16:31;14.00;;;8.73;;
53521;SDS011;39398;48.382;9.802;2023-03-17T11:21:38;12.40;;;8.55;;
53521;SDS011;39398;48.382;9.802;2023-03-17T11:26:50;12.15;;;8.68;;
53521;SDS011;39398;48.382;9.802;2023-03-17T11:32:00;14.77;;;8.82;;
53521;SDS011;39398;48.382;9.802;2023-03-17T11:37:17;12.55;;;8.40;;
53521;SDS011;39398;48.382;9.802;2023-03-17T11:42:30;13.18;;;8.57;;
53521;SDS011;39398;48.382;9.802;2023-03-17T11:47:48;13.13;;;8.60;;
53521;SDS011;39398;48.382;9.802;2023-03-17T11:53:04;12.07;;;8.50;;
53521;SDS011;39398;48.382;9.802;2023-03-17T11:58:23;13.93;;;8.65;;
53521;SDS011;39398;48.382;9.802;2023-03-17T12:03:32;16.20;;;10.65;;
53521;SDS011;39398;48.382;9.802;2023-03-17T12:08:40;10.52;;;8.07;;
53521;SDS011;39398;48.382;9.802;2023-03-17T12:13:45;12.35;;;8.30;;
53521;SDS011;39398;48.382;9.802;2023-03-17T12:18:55;11.85;;;8.88;;
53521;SDS011;39398;48.382;9.802;2023-03-17T12:24:02;10.43;;;8.30;;
53521;SDS011;39398;48.382;9.802;2023-03-17T12:29:12;11.93;;;8.75;;
53521;SDS011;39398;48.382;9.802;2023-03-17T12:34:20;10.73;;;7.63;;
53521;SDS011;39398;48.382;9.802;2023-03-17T12:39:27;13.38;;;9.20;;
53521;SDS011;39398;48.382;9.802;2023-03-17T12:44:36;12.02;;;8.38;;
53521;SDS011;39398;48.382;9.802;2023-03-17T12:55:21;12.93;;;8.10;;
53521;SDS011;39398;48.382;9.802;2023-03-17T13:00:25;51.97;;;20.80;;
53521;SDS011;39398;48.382;9.802;2023-03-17T13:05:30;15.73;;;11.15;;
53521;SDS011;39398;48.382;9.802;2023-03-17T13:10:38;13.82;;;8.45;;
53521;SDS011;39398;48.382;9.802;2023-03-17T13:15:57;12.90;;;8.40;;
53521;SDS011;39398;48.382;9.802;2023-03-17T13:21:12;11.40;;;7.55;;
53521;SDS011;39398;48.382;9.802;2023-03-17T13:26:17;11.45;;;7.65;;
53521;SDS011;39398;48.382;9.802;2023-03-17T13:31:33;13.10;;;7.35;;
53521;SDS011;39398;48.382;9.802;2023-03-17T13:36:39;10.95;;;6.25;;
53521;SDS011;39398;48.382;9.802;2023-03-17T13:41:50;17.45;;;6.80;;
53521;SDS011;39398;48.382;9.802;2023-03-17T13:47:26;9.75;;;5.43;;
53521;SDS011;39398;48.382;9.802;2023-03-17T13:52:37;8.27;;;5.50;;
53521;SDS011;39398;48.382;9.802;2023-03-17T13:57:41;11.23;;;6.63;;
53521;SDS011;39398;48.382;9.802;2023-03-17T14:02:42;11.25;;;6.65;;
53521;SDS011;39398;48.382;9.802;2023-03-17T14:07:47;13.57;;;8.70;;
53521;SDS011;39398;48.382;9.802;2023-03-17T14:12:56;11.77;;;7.38;;
53521;SDS011;39398;48.382;9.802;2023-03-17T14:18:06;11.80;;;6.93;;
53521;SDS011;39398;48.382;9.802;2023-03-17T14:23:10;14.25;;;7.88;;
53521;SDS011;39398;48.382;9.802;2023-03-17T14:28:13;11.32;;;7.57;;
53521;SDS011;39398;48.382;9.802;2023-03-17T14:33:20;15.27;;;7.15;;
53521;SDS011;39398;48.382;9.802;2023-03-17T14:38:29;11.90;;;7.20;;
53521;SDS011;39398;48.382;9.802;2023-03-17T14:43:32;12.80;;;8.13;;
53521;SDS011;39398;48.382;9.802;2023-03-17T14:48:36;14.38;;;8.18;;
53521;SDS011;39398;48.382;9.802;2023-03-17T14:53:41;12.48;;;7.80;;
53521;SDS011;39398;48.382;9.802;2023-03-17T14:58:44;12.98;;;7.22;;
53521;SDS011;39398;48.382;9.802;2023-03-17T15:03:53;13.80;;;7.95;;
53521;SDS011;39398;48.382;9.802;2023-03-17T15:08:58;14.02;;;8.27;;
53521;SDS011;39398;48.382;9.802;2023-03-17T15:14:03;22.17;;;12.73;;
53521;SDS011;39398;48.382;9.802;2023-03-17T15:19:06;13.32;;;8.20;;
53521;SDS011;39398;48.382;9.802;2023-03-17T15:24:38;13.48;;;8.38;;
53521;SDS011;39398;48.382;9.802;2023-03-17T15:29:40;13.60;;;7.90;;
53521;SDS011;39398;48.382;9.802;2023-03-17T15:34:42;13.93;;;8.35;;
53521;SDS011;39398;48.382;9.802;2023-03-17T15:39:45;12.35;;;8.23;;
53521;SDS011;39398;48.382;9.802;2023-03-17T15:44:47;13.30;;;8.93;;
53521;SDS011;39398;48.382;9.802;2023-03-17T15:49:49;14.30;;;7.40;;
53521;SDS011;39398;48.382;9.802;2023-03-17T15:54:52;13.10;;;7.65;;
53521;SDS011;39398;48.382;9.802;2023-03-17T15:59:55;16.17;;;8.38;;
53521;SDS011;39398;48.382;9.802;2023-03-17T16:04:56;17.00;;;9.20;;
53521;SDS011;39398;48.382;9.802;2023-03-17T16:10:00;13.75;;;8.18;;
53521;SDS011;39398;48.382;9.802;2023-03-17T16:15:02;15.57;;;8.82;;
53521;SDS011;39398;48.382;9.802;2023-03-17T16:20:23;33.38;;;25.50;;
53521;SDS011;39398;48.382;9.802;2023-03-17T16:25:28;21.40;;;13.95;;
53521;SDS011;39398;48.382;9.802;2023-03-17T16:30:32;23.48;;;14.65;;
53521;SDS011;39398;48.382;9.802;2023-03-17T16:35:35;40.00;;;24.45;;
53521;SDS011;39398;48.382;9.802;2023-03-17T16:40:37;20.40;;;11.93;;
53521;SDS011;39398;48.382;9.802;2023-03-17T16:45:40;16.23;;;9.20;;
53521;SDS011;39398;48.382;9.802;2023-03-17T16:50:42;14.75;;;8.93;;
53521;SDS011;39398;48.382;9.802;2023-03-17T16:55:45;16.38;;;9.60;;
53521;SDS011;39398;48.382;9.802;2023-03-17T17:00:48;18.45;;;11.25;;
53521;SDS011;39398;48.382;9.802;2023-03-17T17:05:51;21.90;;;13.30;;
53521;SDS011;39398;48.382;9.802;2023-03-17T17:10:54;20.17;;;11.95;;
53521;SDS011;39398;48.382;9.802;2023-03-17T17:15:56;37.80;;;20.58;;
53521;SDS011;39398;48.382;9.802;2023-03-17T17:20:58;31.10;;;23.00;;
53521;SDS011;39398;48.382;9.802;2023-03-17T17:26:01;26.23;;;16.05;;
53521;SDS011;39398;48.382;9.802;2023-03-17T17:31:02;26.10;;;16.67;;
53521;SDS011;39398;48.382;9.802;2023-03-17T17:36:04;23.70;;;14.95;;
53521;SDS011;39398;48.382;9.802;2023-03-17T17:41:09;27.65;;;16.90;;
53521;SDS011;39398;48.382;9.802;2023-03-17T17:46:13;22.58;;;13.10;;
53521;SDS011;39398;48.382;9.802;2023-03-17T17:51:16;25.05;;;13.98;;
53521;SDS011;39398;48.382;9.802;2023-03-17T17:56:19;20.67;;;11.70;;
53521;SDS011;39398;48.382;9.802;2023-03-17T18:01:21;17.55;;;10.05;;
53521;SDS011;39398;48.382;9.802;2023-03-17T18:06:23;28.17;;;15.65;;
53521;SDS011;39398;48.382;9.802;2023-03-17T18:11:26;38.80;;;19.77;;
53521;SDS011;39398;48.382;9.802;2023-03-17T18:16:28;45.08;;;25.00;;
53521;SDS011;39398;48.382;9.802;2023-03-17T18:21:29;44.38;;;26.02;;
53521;SDS011;39398;48.382;9.802;2023-03-17T18:26:32;26.92;;;13.55;;
53521;SDS011;39398;48.382;9.802;2023-03-17T18:31:36;21.33;;;10.57;;
53521;SDS011;39398;48.382;9.802;2023-03-17T18:36:40;24.00;;;12.23;;
53521;SDS011;39398;48.382;9.802;2023-03-17T18:41:43;17.42;;;10.00;;
53521;SDS011;39398;48.382;9.802;2023-03-17T18:46:45;14.77;;;8.85;;
53521;SDS011;39398;48.382;9.802;2023-03-17T18:51:47;16.45;;;8.77;;
53521;SDS011;39398;48.382;9.802;2023-03-17T18:56:50;19.13;;;9.98;;
53521;SDS011;39398;48.382;9.802;2023-03-17T19:01:51;18.10;;;10.55;;
53521;SDS011;39398;48.382;9.802;2023-03-17T19:06:53;23.05;;;13.25;;
53521;SDS011;39398;48.382;9.802;2023-03-17T19:11:56;24.17;;;13.75;;
53521;SDS011;39398;48.382;9.802;2023-03-17T19:16:57;24.25;;;12.82;;
53521;SDS011;39398;48.382;9.802;2023-03-17T19:21:59;21.98;;;11.07;;
53521;SDS011;39398;48.382;9.802;2023-03-17T19:27:02;22.02;;;11.05;;
53521;SDS011;39398;48.382;9.802;2023-03-17T19:32:04;28.02;;;13.45;;
53521;SDS011;39398;48.382;9.802;2023-03-17T19:37:05;19.60;;;10.30;;
53521;SDS011;39398;48.382;9.802;2023-03-17T19:42:08;13.70;;;7.10;;
53521;SDS011;39398;48.382;9.802;2023-03-17T19:47:10;14.27;;;7.47;;
53521;SDS011;39398;48.382;9.802;2023-03-17T19:52:11;14.60;;;7.25;;
53521;SDS011;39398;48.382;9.802;2023-03-17T19:57:15;11.32;;;5.95;;
53521;SDS011;39398;48.382;9.802;2023-03-17T20:02:17;11.32;;;5.15;;
53521;SDS011;39398;48.382;9.802;2023-03-17T20:07:18;11.98;;;5.55;;
53521;SDS011;39398;48.382;9.802;2023-03-17T20:12:21;12.95;;;6.40;;
53521;SDS011;39398;48.382;9.802;2023-03-17T20:17:23;11.23;;;6.13;;
53521;SDS011;39398;48.382;9.802;2023-03-17T20:22:25;11.25;;;5.78;;
53521;SDS011;39398;48.382;9.802;2023-03-17T20:27:28;11.05;;;5.43;;
53521;SDS011;39398;48.382;9.802;2023-03-17T20:32:29;10.05;;;5.47;;
53521;SDS011;39398;48.382;9.802;2023-03-17T20:37:31;14.20;;;6.07;;
53521;SDS011;39398;48.382;9.802;2023-03-17T20:42:34;17.40;;;8.77;;
53521;SDS011;39398;48.382;9.802;2023-03-17T20:47:36;21.48;;;9.77;;
53521;SDS011;39398;48.382;9.802;2023-03-17T20:52:38;19.98;;;7.07;;
53521;SDS011;39398;48.382;9.802;2023-03-17T20:57:41;22.80;;;8.70;;
53521;SDS011;39398;48.382;9.802;2023-03-17T21:02:44;11.25;;;5.28;;
53521;SDS011;39398;48.382;9.802;2023-03-17T21:07:46;11.40;;;5.53;;
53521;SDS011;39398;48.382;9.802;2023-03-17T21:12:49;9.68;;;5.40;;
53521;SDS011;39398;48.382;9.802;2023-03-17T21:17:53;10.10;;;5.15;;
53521;SDS011;39398;48.382;9.802;2023-03-17T21:22:55;11.00;;;5.00;;
53521;SDS011;39398;48.382;9.802;2023-03-17T21:27:58;9.73;;;5.38;;
53521;SDS011;39398;48.382;9.802;2023-03-17T21:32:59;10.43;;;5.00;;
53521;SDS011;39398;48.382;9.802;2023-03-17T21:38:01;10.85;;;5.38;;
53521;SDS011;39398;48.382;9.802;2023-03-17T21:43:05;20.15;;;10.85;;
53521;SDS011;39398;48.382;9.802;2023-03-17T21:48:06;10.68;;;5.22;;
53521;SDS011;39398;48.382;9.802;2023-03-17T21:53:08;9.35;;;4.80;;
53521;SDS011;39398;48.382;9.802;2023-03-17T21:58:14;8.98;;;4.72;;
53521;SDS011;39398;48.382;9.802;2023-03-17T22:03:15;10.00;;;4.57;;
53521;SDS011;39398;48.382;9.802;2023-03-17T22:08:18;10.32;;;5.00;;
53521;SDS011;39398;48.382;9.802;2023-03-17T22:13:21;9.75;;;5.00;;
53521;SDS011;39398;48.382;9.802;2023-03-17T22:18:22;10.90;;;5.20;;
53521;SDS011;39398;48.382;9.802;2023-03-17T22:23:24;18.80;;;10.10;;
53521;SDS011;39398;48.382;9.802;2023-03-17T22:28:28;10.50;;;5.18;;
53521;SDS011;39398;48.382;9.802;2023-03-17T22:33:29;10.15;;;5.30;;
53521;SDS011;39398;48.382;9.802;2023-03-17T22:38:31;11.23;;;5.10;;
53521;SDS011;39398;48.382;9.802;2023-03-17T22:43:34;8.93;;;4.93;;
53521;SDS011;39398;48.382;9.802;2023-03-17T22:48:36;7.32;;;4.35;;
53521;SDS011;39398;48.382;9.802;2023-03-17T22:53:38;10.13;;;5.65;;
53521;SDS011;39398;48.382;9.802;2023-03-17T22:58:42;11.38;;;5.57;;
53521;SDS011;39398;48.382;9.802;2023-03-17T23:03:44;7.32;;;4.38;;
53521;SDS011;39398;48.382;9.802;2023-03-17T23:08:45;8.27;;;3.92;;
53521;SDS011;39398;48.382;9.802;2023-03-17T23:13:49;4.97;;;3.08;;
53521;SDS011;39398;48.382;9.802;2023-03-17T23:18:52;7.95;;;3.35;;
53521;SDS011;39398;48.382;9.802;2023-03-17T23:23:53;6.93;;;2.90;;
53521;SDS011;39398;48.382;9.802;2023-03-17T23:28:57;6.80;;;3.03;;
53521;SDS011;39398;48.382;9.802;2023-03-17T23:33:58;8.57;;;3.65;;
53521;SDS011;39398;48.382;9.802;2023-03-17T23:39:00;7.18;;;3.50;;
53521;SDS011;39398;48.382;9.802;2023-03-17T23:44:03;6.10;;;4.00;;
53521;SDS011;39398;48.382;9.802;2023-03-17T23:49:05;5.00;;;2.40;;
53521;SDS011;39398;48.382;9.802;2023-03-17T23:54:07;4.78;;;2.50;;
53521;SDS011;39398;48.382;9.802;2023-03-17T23:59:10;5.47;;;2.63;;
